Time;durP1;ratioP1;P1;durP2;ratioP2;P2;SDS_P1;SDS_P2;PMS_P1;PMS_P2;Temp;Humidity;BMP_temperature;BMP_pressure;BME280_temperature;BME280_humidity;BME280_pressure;Samples;Min_cycle;Max_cycle;Signal;HPM_P1;HPM_P2
2022/02/22 00:01:00;;;;;;;32.30;9.47;;;6.30;99.90;;;;;;5023792;28;20459;-81
2022/02/22 00:03:30;;;;;;;21.80;9.60;;;6.40;99.90;;;;;;5023553;28;20457;-81
2022/02/22 00:05:57;;;;;;;27.10;11.37;;;6.30;99.90;;;;;;5023278;28;20460;-80
2022/02/22 00:08:24;;;;;;;21.00;8.47;;;6.20;99.90;;;;;;5024374;28;20516;-80
2022/02/22 00:10:51;;;;;;;17.10;7.90;;;6.20;99.90;;;;;;5024443;28;20461;-81
2022/02/22 00:13:18;;;;;;;36.43;11.23;;;6.30;99.90;;;;;;5022842;28;20457;-80
2022/02/22 00:15:44;;;;;;;43.53;14.60;;;6.30;99.90;;;;;;5020997;28;20857;-82
2022/02/22 00:18:11;;;;;;;30.03;9.70;;;6.20;99.90;;;;;;5020434;28;20579;-79
2022/02/22 00:20:39;;;;;;;19.30;8.60;;;6.30;99.90;;;;;;5022991;28;20464;-81
2022/02/22 00:23:07;;;;;;;17.60;9.57;;;6.30;99.90;;;;;;5023687;28;20453;-80
2022/02/22 00:25:34;;;;;;;25.53;11.00;;;6.20;99.90;;;;;;5019874;28;20453;-82
2022/02/22 00:28:01;;;;;;;37.73;13.27;;;6.20;99.90;;;;;;5021634;28;20473;-81
2022/02/22 00:30:29;;;;;;;51.57;10.80;;;6.10;99.90;;;;;;5023033;28;20457;-80
2022/02/22 00:32:56;;;;;;;42.70;12.50;;;6.20;99.90;;;;;;5023653;28;20460;-81
2022/02/22 00:35:23;;;;;;;42.87;15.13;;;6.10;99.90;;;;;;5023524;28;20479;-80
2022/02/22 00:37:51;;;;;;;29.97;13.30;;;6.00;99.90;;;;;;5022961;28;20488;-84
2022/02/22 00:40:18;;;;;;;38.77;20.87;;;6.00;99.90;;;;;;5021169;28;20464;-81
2022/02/22 00:42:45;;;;;;;35.13;19.93;;;6.00;99.90;;;;;;5019608;28;20453;-80
2022/02/22 00:45:12;;;;;;;40.27;22.67;;;6.00;99.90;;;;;;5020397;28;20460;-79
2022/02/22 00:47:40;;;;;;;34.50;21.43;;;6.00;99.90;;;;;;5022225;28;20481;-81
2022/02/22 00:50:08;;;;;;;52.60;33.73;;;6.00;99.90;;;;;;5022673;28;20548;-82
2022/02/22 00:52:35;;;;;;;41.87;38.40;;;6.00;99.90;;;;;;5022735;28;20503;-81
2022/02/22 00:55:04;;;;;;;40.73;36.33;;;6.00;99.90;;;;;;5019245;28;20468;-80
2022/02/22 00:57:30;;;;;;;36.73;32.30;;;6.00;99.90;;;;;;5022658;28;20493;-81
2022/02/22 00:59:57;;;;;;;31.23;27.80;;;6.00;99.90;;;;;;5022470;28;20468;-80
2022/02/22 01:02:24;;;;;;;28.37;25.10;;;6.00;99.90;;;;;;5024183;28;20457;-81
2022/02/22 01:04:51;;;;;;;38.30;28.67;;;6.00;99.90;;;;;;5021228;28;20453;-81
2022/02/22 01:07:18;;;;;;;34.77;30.40;;;6.00;99.90;;;;;;5019019;28;20469;-80
2022/02/22 01:09:46;;;;;;;43.97;39.60;;;6.00;99.90;;;;;;5022020;28;20522;-79
2022/02/22 01:12:15;;;;;;;38.17;34.30;;;5.90;99.90;;;;;;5021377;28;20457;-82
2022/02/22 01:14:42;;;;;;;25.30;22.00;;;5.80;99.90;;;;;;5025129;28;20977;-82
2022/02/22 01:17:09;;;;;;;44.10;33.73;;;5.80;99.90;;;;;;5023067;28;21020;-81
2022/02/22 01:19:36;;;;;;;38.83;34.97;;;5.70;99.90;;;;;;5024793;28;20453;-80
2022/02/22 01:22:03;;;;;;;48.77;43.57;;;5.60;99.90;;;;;;5023089;28;20481;-82
2022/02/22 01:24:30;;;;;;;54.00;48.53;;;5.70;99.90;;;;;;5019371;28;20453;-79
2022/02/22 01:26:57;;;;;;;44.27;39.73;;;5.60;99.90;;;;;;5024765;28;20469;-80
2022/02/22 01:29:26;;;;;;;46.77;42.57;;;5.70;99.90;;;;;;5026257;28;20457;-82
2022/02/22 01:31:53;;;;;;;53.77;49.17;;;5.70;99.90;;;;;;5026076;28;20449;-80
2022/02/22 01:34:20;;;;;;;59.53;54.17;;;5.60;99.90;;;;;;5027346;28;20441;-81
2022/02/22 01:36:47;;;;;;;78.80;73.63;;;5.70;99.90;;;;;;5027060;28;20473;-81
2022/02/22 01:39:14;;;;;;;100.10;94.63;;;5.60;99.90;;;;;;5023067;28;21006;-81
2022/02/22 01:41:44;;;;;;;115.30;108.20;;;5.60;99.90;;;;;;5022182;28;20453;-82
2022/02/22 01:44:12;;;;;;;158.87;149.77;;;5.70;99.90;;;;;;5022561;28;20938;-81
2022/02/22 01:46:40;;;;;;;151.43;143.33;;;5.80;99.90;;;;;;5019296;28;20469;-80
2022/02/22 01:49:07;;;;;;;142.30;134.73;;;5.90;99.90;;;;;;5020299;28;20449;-81
2022/02/22 01:51:37;;;;;;;128.80;121.63;;;5.90;99.90;;;;;;5018720;28;20564;-79
2022/02/22 01:54:04;;;;;;;124.03;116.17;;;6.00;99.90;;;;;;5019177;28;20453;-80
2022/02/22 01:56:32;;;;;;;126.73;119.33;;;6.00;99.90;;;;;;5020353;28;21029;-81
2022/02/22 01:58:59;;;;;;;140.30;132.33;;;6.00;99.90;;;;;;5018107;28;20484;-82
2022/02/22 02:01:25;;;;;;;180.07;170.33;;;6.00;99.90;;;;;;5020116;28;20465;-82
2022/02/22 02:03:54;;;;;;;198.13;187.33;;;6.00;99.90;;;;;;5019708;28;20459;-79
2022/02/22 02:06:21;;;;;;;137.97;130.63;;;5.90;99.90;;;;;;5020350;28;20463;-79
2022/02/22 02:08:48;;;;;;;131.03;123.20;;;5.90;99.90;;;;;;5019871;28;20461;-82
2022/02/22 02:11:14;;;;;;;113.90;106.87;;;6.00;99.90;;;;;;5017835;28;20449;-80
2022/02/22 02:13:41;;;;;;;155.57;148.37;;;5.90;99.90;;;;;;5019770;28;20469;-81
2022/02/22 02:16:08;;;;;;;122.63;116.40;;;5.80;99.90;;;;;;5020368;28;20457;-82
2022/02/22 02:18:35;;;;;;;113.80;108.30;;;5.80;99.90;;;;;;5017562;28;20539;-81
2022/02/22 02:21:03;;;;;;;105.57;98.77;;;5.80;99.90;;;;;;5021029;28;20465;-81
2022/02/22 02:23:31;;;;;;;143.40;135.50;;;5.70;99.90;;;;;;5017329;28;20467;-79
2022/02/22 02:25:58;;;;;;;119.20;111.53;;;5.80;99.90;;;;;;5019994;28;20457;-80
2022/02/22 02:28:25;;;;;;;199.50;187.60;;;5.70;99.90;;;;;;5018334;28;20473;-82
2022/02/22 02:30:51;;;;;;;155.00;147.37;;;5.60;99.90;;;;;;5020073;28;20467;-80
2022/02/22 02:33:18;;;;;;;212.57;201.67;;;5.40;99.90;;;;;;5018611;28;20450;-79
2022/02/22 02:35:45;;;;;;;232.97;223.03;;;5.40;99.90;;;;;;5020319;28;20464;-81
2022/02/22 02:38:12;;;;;;;271.67;257.90;;;5.30;99.90;;;;;;5019623;28;20488;-82
2022/02/22 02:40:40;;;;;;;345.03;329.13;;;5.20;99.90;;;;;;5019689;28;20984;-80
2022/02/22 02:43:07;;;;;;;297.27;283.83;;;5.20;99.90;;;;;;5020522;28;20549;-80
2022/02/22 02:45:34;;;;;;;298.73;284.23;;;5.30;99.90;;;;;;5021450;28;20471;-82
2022/02/22 02:48:00;;;;;;;286.83;274.27;;;5.30;99.90;;;;;;5016778;28;20470;-81
2022/02/22 02:50:27;;;;;;;288.30;275.13;;;5.20;99.90;;;;;;5018497;28;20453;-80
2022/02/22 02:52:54;;;;;;;321.77;305.97;;;5.40;99.90;;;;;;5015965;28;20459;-82
2022/02/22 02:55:21;;;;;;;306.43;291.03;;;5.30;99.90;;;;;;5015911;28;20537;-79
2022/02/22 02:57:49;;;;;;;292.77;279.87;;;5.30;99.90;;;;;;5016128;28;20481;-79
2022/02/22 03:00:16;;;;;;;318.30;304.07;;;5.10;99.90;;;;;;5016505;28;20541;-81
2022/02/22 03:02:43;;;;;;;349.70;333.93;;;5.00;99.90;;;;;;5016240;28;20464;-81
2022/02/22 03:05:10;;;;;;;352.40;336.87;;;5.00;99.90;;;;;;5014940;28;20453;-79
2022/02/22 03:07:37;;;;;;;407.07;387.00;;;4.90;99.90;;;;;;5018199;28;20473;-82
2022/02/22 03:10:05;;;;;;;417.53;398.90;;;4.90;99.90;;;;;;5014640;28;20452;-81
2022/02/22 03:12:32;;;;;;;425.03;405.23;;;4.80;99.90;;;;;;5017316;28;20456;-79
2022/02/22 03:15:00;;;;;;;410.83;392.63;;;4.80;99.90;;;;;;5016503;28;20528;-80
2022/02/22 03:17:27;;;;;;;448.97;426.60;;;4.80;99.90;;;;;;5017032;28;20561;-80
2022/02/22 03:19:57;;;;;;;468.97;444.57;;;4.80;99.90;;;;;;5019412;28;20480;-82
2022/02/22 03:22:23;;;;;;;477.90;454.50;;;4.80;99.90;;;;;;5019473;28;20476;-81
2022/02/22 03:24:52;;;;;;;496.03;470.63;;;4.60;99.90;;;;;;5019166;28;20449;-82
2022/02/22 03:27:19;;;;;;;510.90;484.27;;;4.70;99.90;;;;;;5020333;28;20480;-82
2022/02/22 03:29:46;;;;;;;511.57;485.10;;;4.70;99.90;;;;;;5021116;28;20863;-80
2022/02/22 03:32:14;;;;;;;496.30;471.60;;;4.70;99.90;;;;;;5021290;28;20492;-80
2022/02/22 03:34:44;;;;;;;514.37;487.77;;;4.70;99.90;;;;;;5020540;28;20512;-83
2022/02/22 03:37:11;;;;;;;498.33;472.70;;;4.70;99.90;;;;;;5019659;28;20509;-81
2022/02/22 03:39:38;;;;;;;480.03;455.47;;;4.80;99.90;;;;;;5019216;28;20481;-80
2022/02/22 03:42:05;;;;;;;468.37;445.67;;;4.80;99.90;;;;;;5019133;28;20448;-80
2022/02/22 03:44:34;;;;;;;469.53;446.07;;;4.70;99.90;;;;;;5021280;28;20453;-80
2022/02/22 03:47:05;;;;;;;495.10;470.07;;;4.80;99.90;;;;;;5019717;28;20509;-80
2022/02/22 03:49:33;;;;;;;502.33;475.87;;;4.70;99.90;;;;;;5021817;28;20870;-82
2022/02/22 03:52:00;;;;;;;512.50;484.63;;;4.70;99.90;;;;;;5021995;28;20450;-81
2022/02/22 03:54:27;;;;;;;520.80;493.27;;;4.60;99.90;;;;;;5021873;28;20521;-81
2022/02/22 03:56:53;;;;;;;514.27;486.97;;;4.60;99.90;;;;;;5019139;28;20476;-80
2022/02/22 03:59:20;;;;;;;520.90;493.87;;;4.60;99.90;;;;;;5020928;28;20494;-81
2022/02/22 04:01:49;;;;;;;534.87;505.57;;;4.50;99.90;;;;;;5023040;28;21031;-81
2022/02/22 04:04:16;;;;;;;568.00;536.20;;;4.50;99.90;;;;;;5019353;28;20456;-79
2022/02/22 04:06:44;;;;;;;557.30;527.93;;;4.50;99.90;;;;;;5022752;28;20560;-82
2022/02/22 04:09:11;;;;;;;571.97;538.27;;;4.60;99.90;;;;;;5022235;28;20445;-81
2022/02/22 04:11:38;;;;;;;551.57;521.80;;;4.70;99.90;;;;;;5022711;28;20536;-81
2022/02/22 04:14:05;;;;;;;549.73;518.80;;;4.80;99.90;;;;;;5022865;28;20488;-81
2022/02/22 04:16:32;;;;;;;547.70;517.17;;;4.80;99.90;;;;;;5023468;28;20454;-80
2022/02/22 04:18:59;;;;;;;544.30;514.13;;;4.80;99.90;;;;;;5024419;28;20560;-80
2022/02/22 04:21:31;;;;;;;526.70;498.17;;;4.80;99.90;;;;;;5022334;28;20544;-81
2022/02/22 04:24:00;;;;;;;505.10;478.50;;;4.80;99.90;;;;;;5023927;28;20954;-81
2022/02/22 04:26:30;;;;;;;513.63;486.67;;;4.70;99.90;;;;;;5020899;28;20827;-80
2022/02/22 04:29:00;;;;;;;522.43;494.53;;;4.70;99.90;;;;;;5023911;28;20465;-80
2022/02/22 04:31:27;;;;;;;517.93;489.87;;;4.60;99.90;;;;;;5022418;28;20488;-82
2022/02/22 04:33:54;;;;;;;549.73;518.87;;;4.60;99.90;;;;;;5025330;28;20480;-80
2022/02/22 04:36:21;;;;;;;573.93;542.83;;;4.50;99.90;;;;;;5028757;28;20516;-83
2022/02/22 04:38:48;;;;;;;594.93;562.00;;;4.50;99.90;;;;;;5028426;28;20972;-81
2022/02/22 04:41:17;;;;;;;587.70;556.10;;;4.50;99.90;;;;;;5026802;28;20515;-81
2022/02/22 04:43:44;;;;;;;580.80;548.60;;;4.40;99.90;;;;;;5025686;28;20480;-81
2022/02/22 04:46:10;;;;;;;590.90;555.90;;;4.50;99.90;;;;;;5025919;28;20532;-81
2022/02/22 04:48:37;;;;;;;591.50;557.63;;;4.40;99.90;;;;;;5026081;28;20473;-82
2022/02/22 04:51:04;;;;;;;613.33;575.50;;;4.40;99.90;;;;;;5027245;28;20474;-82
2022/02/22 04:53:31;;;;;;;618.13;582.03;;;4.50;99.90;;;;;;5023260;28;20529;-79
2022/02/22 04:55:58;;;;;;;585.10;550.70;;;4.50;99.90;;;;;;5023103;28;20464;-81
2022/02/22 04:58:26;;;;;;;597.33;563.50;;;4.50;99.90;;;;;;5024130;28;20496;-81
2022/02/22 05:00:53;;;;;;;588.23;555.47;;;4.50;99.90;;;;;;5020723;28;20459;-78
2022/02/22 05:03:23;;;;;;;592.30;558.57;;;4.40;99.90;;;;;;5023067;28;20456;-80
2022/02/22 05:05:50;;;;;;;599.43;563.03;;;4.30;99.90;;;;;;5023520;28;20972;-79
2022/02/22 05:08:17;;;;;;;618.93;581.23;;;4.30;99.90;;;;;;5024354;28;20457;-81
2022/02/22 05:10:44;;;;;;;612.23;574.87;;;4.40;99.90;;;;;;5024221;28;20910;-81
2022/02/22 05:13:11;;;;;;;611.37;574.07;;;4.20;99.90;;;;;;5023993;28;20449;-82
2022/02/22 05:15:41;;;;;;;634.20;594.47;;;4.30;99.90;;;;;;5024383;28;20544;-80
2022/02/22 05:18:08;;;;;;;652.50;609.50;;;4.30;99.90;;;;;;5022025;28;20489;-81
2022/02/22 05:20:35;;;;;;;635.23;594.87;;;4.30;99.90;;;;;;5022352;28;20467;-80
2022/02/22 05:23:01;;;;;;;636.10;594.30;;;4.20;99.90;;;;;;5023183;28;20452;-83
2022/02/22 05:25:29;;;;;;;630.80;589.60;;;4.20;99.90;;;;;;5021807;28;20463;-80
2022/02/22 05:27:55;;;;;;;633.10;590.07;;;4.30;99.90;;;;;;5022306;28;20469;-81
2022/02/22 05:30:22;;;;;;;629.70;589.17;;;4.30;99.90;;;;;;5021738;28;20450;-80
2022/02/22 05:32:50;;;;;;;642.83;599.43;;;4.20;99.90;;;;;;5021505;28;20855;-80
2022/02/22 05:35:17;;;;;;;635.87;593.77;;;4.20;99.90;;;;;;5021637;28;20457;-80
2022/02/22 05:37:44;;;;;;;647.17;604.47;;;4.20;99.90;;;;;;5020549;28;20489;-80
2022/02/22 05:40:12;;;;;;;644.13;599.87;;;4.10;99.90;;;;;;5020686;28;20453;-81
2022/02/22 05:42:38;;;;;;;646.70;602.50;;;4.10;99.90;;;;;;5020681;28;20576;-80
2022/02/22 05:45:06;;;;;;;668.90;624.53;;;4.00;99.90;;;;;;5017287;28;20468;-80
2022/02/22 05:47:33;;;;;;;682.63;633.87;;;4.00;99.90;;;;;;5020709;28;20481;-80
2022/02/22 05:50:01;;;;;;;681.80;633.50;;;3.90;99.90;;;;;;5020630;28;20464;-80
2022/02/22 05:52:28;;;;;;;684.27;634.27;;;4.00;99.90;;;;;;5021541;28;20453;-80
2022/02/22 05:54:55;;;;;;;681.27;633.20;;;4.00;99.90;;;;;;5020277;28;20457;-80
2022/02/22 05:57:24;;;;;;;689.27;638.80;;;3.90;99.90;;;;;;5019834;28;20473;-81
2022/02/22 05:59:51;;;;;;;692.80;642.07;;;3.90;99.90;;;;;;5017981;28;20945;-82
2022/02/22 06:02:17;;;;;;;690.03;639.80;;;3.90;99.90;;;;;;5018751;28;20457;-82
2022/02/22 06:04:44;;;;;;;679.27;630.60;;;3.90;99.90;;;;;;5017625;28;20603;-83
2022/02/22 06:07:12;;;;;;;691.57;641.13;;;3.80;99.90;;;;;;5019629;28;20480;-81
2022/02/22 06:09:39;;;;;;;677.57;625.37;;;3.90;99.90;;;;;;5016061;28;20461;-83
2022/02/22 06:12:07;;;;;;;672.57;622.90;;;3.90;99.90;;;;;;5017521;28;20445;-82
2022/02/22 06:14:34;;;;;;;674.37;623.73;;;4.00;99.90;;;;;;5016441;28;20458;-81
2022/02/22 06:17:01;;;;;;;680.60;630.30;;;4.00;99.90;;;;;;5016607;28;20472;-81
2022/02/22 06:19:28;;;;;;;677.10;627.60;;;3.90;99.90;;;;;;5017288;28;20488;-81
2022/02/22 06:21:54;;;;;;;678.80;629.63;;;4.00;99.90;;;;;;5018318;28;20461;-82
2022/02/22 06:24:23;;;;;;;671.10;622.53;;;3.90;99.90;;;;;;5020119;28;20457;-82
2022/02/22 06:26:50;;;;;;;673.93;625.57;;;4.00;99.90;;;;;;5017816;28;20568;-80
2022/02/22 06:29:16;;;;;;;660.23;613.07;;;4.00;99.90;;;;;;5018325;28;20449;-79
2022/02/22 06:31:43;;;;;;;651.53;607.97;;;4.10;99.90;;;;;;5018268;28;20464;-81
2022/02/22 06:34:10;;;;;;;644.43;602.07;;;4.30;99.90;;;;;;5019335;28;20842;-82
2022/02/22 06:36:37;;;;;;;637.77;596.37;;;4.20;99.90;;;;;;5015988;28;20445;-81
2022/02/22 06:39:04;;;;;;;648.70;605.40;;;4.20;99.90;;;;;;5018450;28;20473;-79
2022/02/22 06:41:32;;;;;;;633.97;591.57;;;4.20;99.90;;;;;;5020091;28;20464;-82
2022/02/22 06:43:59;;;;;;;633.43;591.97;;;4.20;99.90;;;;;;5023975;28;20453;-82
2022/02/22 06:46:25;;;;;;;640.47;599.90;;;4.20;99.90;;;;;;5020967;28;20461;-81
2022/02/22 06:48:52;;;;;;;635.93;595.00;;;4.20;99.90;;;;;;5018530;28;20449;-82
2022/02/22 06:51:19;;;;;;;642.80;600.63;;;4.00;99.90;;;;;;5017791;28;20459;-81
2022/02/22 06:53:46;;;;;;;635.40;594.10;;;4.20;99.90;;;;;;5018448;28;20456;-80
2022/02/22 06:56:13;;;;;;;640.60;597.50;;;4.20;99.90;;;;;;5024121;28;20536;-79
2022/02/22 06:58:41;;;;;;;645.30;603.30;;;4.00;99.90;;;;;;5032847;28;20503;-80
2022/02/22 07:01:08;;;;;;;653.63;608.47;;;3.90;99.90;;;;;;5032931;28;20442;-83
2022/02/22 07:03:35;;;;;;;656.33;609.27;;;3.80;99.90;;;;;;5029286;28;20453;-81
2022/02/22 07:06:02;;;;;;;668.27;619.80;;;3.80;99.90;;;;;;5017576;28;20453;-82
2022/02/22 07:08:29;;;;;;;660.20;611.00;;;3.80;99.90;;;;;;5016683;28;20475;-79
2022/02/22 07:10:55;;;;;;;666.60;616.40;;;3.80;99.90;;;;;;5014844;28;21182;-80
2022/02/22 07:13:22;;;;;;;666.43;615.27;;;3.90;99.90;;;;;;5015182;28;20453;-82
2022/02/22 07:15:50;;;;;;;663.83;612.23;;;4.00;99.90;;;;;;5015208;28;20457;-80
2022/02/22 07:18:17;;;;;;;667.10;617.07;;;4.10;99.90;;;;;;5014161;28;20485;-80
2022/02/22 07:20:44;;;;;;;657.27;608.90;;;4.20;99.90;;;;;;5015464;28;20467;-81
2022/02/22 07:23:11;;;;;;;657.03;609.63;;;4.20;99.90;;;;;;5015690;28;20457;-81
2022/02/22 07:25:37;;;;;;;650.17;604.17;;;4.40;99.90;;;;;;5019063;28;20456;-80
2022/02/22 07:28:04;;;;;;;636.20;591.90;;;4.50;99.90;;;;;;5018488;28;20480;-83
2022/02/22 07:30:31;;;;;;;621.43;581.83;;;4.60;99.90;;;;;;5018744;28;20460;-81
2022/02/22 07:33:01;;;;;;;593.33;554.87;;;4.70;99.90;;;;;;5018267;28;20819;-79
2022/02/22 07:35:29;;;;;;;558.57;525.20;;;4.80;99.90;;;;;;5017067;28;20961;-80
2022/02/22 07:37:56;;;;;;;513.63;485.33;;;4.90;99.90;;;;;;5018427;28;20477;-81
2022/02/22 07:40:24;;;;;;;497.60;470.13;;;5.00;99.90;;;;;;5018123;28;20823;-81
2022/02/22 07:42:51;;;;;;;490.67;463.07;;;5.20;99.90;;;;;;5017608;28;20449;-80
2022/02/22 07:45:18;;;;;;;447.50;424.37;;;5.20;99.90;;;;;;5018407;28;20467;-81
2022/02/22 07:47:45;;;;;;;420.73;399.67;;;5.30;99.90;;;;;;5018009;28;20468;-80
2022/02/22 07:50:13;;;;;;;391.60;370.07;;;5.30;99.90;;;;;;5018890;28;20452;-80
2022/02/22 07:52:40;;;;;;;369.10;350.57;;;5.40;99.90;;;;;;5017734;28;20452;-81
2022/02/22 07:55:08;;;;;;;354.90;336.83;;;5.50;99.90;;;;;;5019109;28;20954;-82
2022/02/22 07:57:35;;;;;;;337.50;321.33;;;5.60;99.90;;;;;;5017832;28;20481;-81
2022/02/22 08:00:03;;;;;;;295.70;281.27;;;5.70;99.90;;;;;;5044606;22;20488;-81
2022/02/22 08:02:30;;;;;;;276.87;264.63;;;5.80;99.90;;;;;;4997843;28;20561;-82
2022/02/22 08:04:57;;;;;;;227.77;218.23;;;5.80;99.90;;;;;;5000970;28;20465;-82
2022/02/22 08:07:26;;;;;;;233.10;222.07;;;5.90;99.90;;;;;;5000423;28;20461;-81
2022/02/22 08:09:53;;;;;;;234.10;224.50;;;6.00;99.90;;;;;;5001612;28;20523;-82
2022/02/22 08:12:20;;;;;;;224.20;215.23;;;6.10;99.90;;;;;;5001280;28;20480;-80
2022/02/22 08:14:47;;;;;;;180.27;171.83;;;6.30;99.90;;;;;;5000530;28;20460;-81
2022/02/22 08:17:13;;;;;;;141.73;134.23;;;6.30;99.90;;;;;;5002027;28;20971;-80
2022/02/22 08:19:40;;;;;;;128.03;121.17;;;6.40;99.90;;;;;;4999016;28;20918;-81
2022/02/22 08:22:07;;;;;;;110.70;104.33;;;6.60;99.90;;;;;;5001552;28;20480;-81
2022/02/22 08:24:35;;;;;;;78.90;74.67;;;7.00;99.90;;;;;;5001156;28;20522;-82
2022/02/22 08:27:03;;;;;;;38.57;35.60;;;7.00;99.90;;;;;;5001303;28;20653;-81
2022/02/22 08:29:31;;;;;;;24.00;18.23;;;7.10;99.90;;;;;;5001731;28;20462;-81
2022/02/22 08:31:58;;;;;;;22.00;18.43;;;7.00;99.90;;;;;;5001006;28;20967;-82
2022/02/22 08:34:25;;;;;;;30.07;26.23;;;7.20;99.90;;;;;;5000179;28;20490;-81
2022/02/22 08:36:52;;;;;;;22.43;18.00;;;7.40;99.90;;;;;;5001486;28;20962;-81
2022/02/22 08:39:19;;;;;;;21.27;13.90;;;7.50;99.90;;;;;;5000940;28;20847;-82
2022/02/22 08:41:49;;;;;;;18.10;14.30;;;7.50;99.90;;;;;;5000741;28;21005;-82
2022/02/22 08:44:16;;;;;;;16.77;10.30;;;7.60;99.90;;;;;;5002225;28;20454;-83
2022/02/22 08:46:44;;;;;;;24.97;11.33;;;7.70;99.90;;;;;;5001031;28;20514;-80
2022/02/22 08:49:11;;;;;;;22.67;9.53;;;7.70;99.90;;;;;;4999934;28;20939;-81
2022/02/22 08:51:38;;;;;;;25.07;11.67;;;7.80;99.90;;;;;;4998302;28;20833;-79
2022/02/22 08:54:08;;;;;;;21.93;11.23;;;7.80;99.90;;;;;;4999905;28;20965;-81
2022/02/22 08:56:35;;;;;;;24.83;12.70;;;7.70;99.90;;;;;;5000753;28;20538;-81
2022/02/22 08:59:06;;;;;;;23.23;12.47;;;7.80;99.90;;;;;;5000432;28;20485;-80
2022/02/22 09:01:32;;;;;;;22.93;13.63;;;7.80;99.90;;;;;;4999796;28;20478;-80
2022/02/22 09:03:59;;;;;;;27.43;12.50;;;7.80;99.90;;;;;;4999952;28;20469;-81
2022/02/22 09:06:26;;;;;;;28.70;14.10;;;7.90;99.90;;;;;;5000316;28;20450;-79
2022/02/22 09:08:53;;;;;;;29.20;15.30;;;8.00;99.90;;;;;;5000440;28;20457;-81
2022/02/22 09:11:20;;;;;;;24.40;13.73;;;8.00;99.90;;;;;;5000331;28;20474;-80
2022/02/22 09:13:48;;;;;;;29.53;18.87;;;8.00;99.90;;;;;;5002991;28;20447;-81
2022/02/22 09:16:16;;;;;;;32.53;15.70;;;8.00;99.90;;;;;;5000395;28;20458;-82
2022/02/22 09:18:43;;;;;;;37.80;13.53;;;8.10;99.90;;;;;;5000974;28;20450;-81
2022/02/22 09:21:10;;;;;;;23.57;13.37;;;8.10;99.90;;;;;;5000593;28;20474;-81
2022/02/22 09:23:39;;;;;;;31.17;16.90;;;8.20;99.90;;;;;;5000031;28;20454;-80
2022/02/22 09:26:06;;;;;;;30.83;15.53;;;8.40;99.90;;;;;;5000214;28;20565;-82
2022/02/22 09:28:33;;;;;;;31.63;14.00;;;8.50;99.90;;;;;;4999906;28;20554;-81
2022/02/22 09:31:03;;;;;;;26.63;14.53;;;8.60;99.90;;;;;;5000597;28;20485;-78
2022/02/22 09:33:43;;;;;;;35.67;14.00;;;8.80;99.90;;;;;;5001379;28;20481;-80
2022/02/22 09:36:10;;;;;;;22.63;9.47;;;8.90;99.90;;;;;;5002689;28;20489;-80
2022/02/22 09:38:37;;;;;;;22.53;8.67;;;8.90;99.90;;;;;;5001698;28;20456;-79
2022/02/22 09:41:04;;;;;;;22.00;7.17;;;9.00;99.90;;;;;;5003008;28;20482;-79
2022/02/22 09:43:34;;;;;;;17.60;7.50;;;9.00;99.90;;;;;;4999986;28;20488;-79
2022/02/22 09:46:04;;;;;;;21.03;7.77;;;9.30;99.90;;;;;;4999940;28;20486;-80
2022/02/22 09:48:34;;;;;;;26.00;8.63;;;9.20;99.90;;;;;;4999719;28;20462;-80
2022/02/22 09:51:02;;;;;;;20.30;8.63;;;9.10;99.90;;;;;;4998994;28;20466;-79
2022/02/22 09:53:29;;;;;;;18.53;7.47;;;9.30;99.90;;;;;;4999177;28;20529;-80
2022/02/22 09:55:57;;;;;;;23.80;8.70;;;9.40;99.90;;;;;;4999440;28;20454;-80
2022/02/22 09:58:24;;;;;;;16.90;7.40;;;9.50;99.90;;;;;;4998756;28;20450;-81
2022/02/22 10:00:58;;;;;;;13.67;7.03;;;9.60;98.50;;;;;;4999150;28;20645;-80
2022/02/22 10:03:25;;;;;;;23.57;7.70;;;9.60;98.10;;;;;;4999144;28;20551;-82
2022/02/22 10:05:55;;;;;;;17.97;7.10;;;9.50;98.50;;;;;;4999242;28;20988;-81
2022/02/22 10:08:31;;;;;;;17.93;7.70;;;9.40;98.50;;;;;;4998882;28;20454;-81
2022/02/22 10:11:06;;;;;;;17.57;6.67;;;9.70;97.90;;;;;;4999123;28;20478;-81
2022/02/22 10:13:34;;;;;;;21.43;8.00;;;9.50;97.10;;;;;;4999837;28;20473;-79
2022/02/22 10:16:12;;;;;;;16.73;6.67;;;9.70;97.30;;;;;;4998940;28;20481;-81
2022/02/22 10:18:49;;;;;;;19.90;7.43;;;9.70;95.90;;;;;;4998881;28;20533;-81
2022/02/22 10:21:25;;;;;;;23.40;7.30;;;9.70;95.90;;;;;;4999062;28;20516;-82
2022/02/22 10:23:52;;;;;;;22.77;7.83;;;9.70;96.10;;;;;;4999218;28;20457;-82
2022/02/22 10:26:26;;;;;;;23.07;8.73;;;9.80;95.90;;;;;;4998961;28;20454;-81
2022/02/22 10:28:53;;;;;;;14.63;6.77;;;9.90;96.00;;;;;;4999142;28;20434;-81
2022/02/22 10:31:30;;;;;;;28.60;7.60;;;9.70;95.40;;;;;;4998902;28;20528;-81
2022/02/22 10:33:57;;;;;;;18.43;6.10;;;9.80;95.50;;;;;;4999262;28;20966;-80
2022/02/22 10:47:11;;;;;;;23.90;7.10;;;9.50;94.80;;;;;;4933551;28;20526;-82
2022/02/22 10:50:22;;;;;;;28.60;7.97;;;9.40;94.30;;;;;;4946271;28;20561;-80
2022/02/22 10:53:41;;;;;;;;;;;;;;;;;;;;;
2022/02/22 10:56:30;;;;;;;35.83;6.70;;;9.60;94.70;;;;;;4899509;29;20498;-81
2022/02/22 10:59:23;;;;;;;21.57;6.30;;;9.60;94.20;;;;;;4996695;28;20485;-78
2022/02/22 11:02:06;;;;;;;23.77;6.10;;;9.80;94.80;;;;;;4996653;28;20485;-78
2022/02/22 11:05:24;;;;;;;27.07;9.63;;;9.50;97.90;;;;;;4993000;28;20507;-80
2022/02/22 11:11:28;;;;;;;17.30;5.30;;;9.10;99.90;;;;;;4994584;28;20947;-80
2022/02/22 11:14:30;;;;;;;23.80;5.83;;;8.90;99.90;;;;;;4998047;28;20481;-80
2022/02/22 11:17:37;;;;;;;28.33;6.50;;;9.00;98.80;;;;;;4992788;28;20461;-80
2022/02/22 11:20:41;;;;;;;25.77;6.37;;;9.10;99.50;;;;;;4898669;28;20552;-79
2022/02/22 11:23:23;;;;;;;30.53;6.30;;;9.30;98.90;;;;;;4993043;28;20471;-80
2022/02/22 11:26:10;;;;;;;18.40;7.30;;;9.40;99.30;;;;;;4997715;28;20434;-80
2022/02/22 11:28:55;;;;;;;16.90;5.17;;;9.50;99.20;;;;;;4997555;28;20950;-78
2022/02/22 11:32:01;;;;;;;33.70;7.20;;;9.50;97.70;;;;;;4996827;28;20469;-81
2022/02/22 11:34:36;;;;;;;33.63;7.90;;;9.60;97.90;;;;;;4997605;28;20454;-81
2022/02/22 11:37:10;;;;;;;23.47;6.17;;;9.50;97.70;;;;;;4997481;28;20454;-81
2022/02/22 11:39:57;;;;;;;15.37;5.43;;;9.50;97.90;;;;;;4996984;28;20568;-80
2022/02/22 11:46:36;;;;;;;18.07;5.00;;;9.60;97.90;;;;;;4815132;29;20470;-79
2022/02/22 11:59:51;;;;;;;;;;;;;;;;;;;;;
2022/02/22 12:02:41;;;;;;;22.87;6.10;;;10.40;93.40;;;;;;4971957;28;20569;-79
2022/02/22 12:05:29;;;;;;;23.00;5.60;;;10.20;93.60;;;;;;4997701;28;20453;-81
2022/02/22 12:08:16;;;;;;;27.17;6.93;;;10.10;94.90;;;;;;4997506;28;21095;-78
2022/02/22 12:11:19;;;;;;;25.47;9.53;;;10.30;93.50;;;;;;5001825;28;20478;-81
2022/02/22 12:14:38;;;;;;;;;;;;;;;;;;;;;
2022/02/22 12:21:19;;;;;;;17.47;7.30;;;10.20;93.80;;;;;;4830645;29;20497;-81
2022/02/22 12:24:46;;;;;;;;;;;;;;;;;;;;;
2022/02/22 12:27:27;;;;;;;22.37;5.50;;;10.00;95.50;;;;;;4975494;28;20472;-81
2022/02/22 12:33:45;;;;;;;22.17;10.30;;;9.40;99.90;;;;;;4845331;29;21013;-82
2022/02/22 12:43:40;;;;;;;24.63;21.80;;;8.90;99.90;;;;;;4904639;28;20443;-81
2022/02/22 12:59:48;;;;;;;;;;;;;;;;;;;;;
2022/02/22 13:09:21;;;;;;;;;;;;;;;;;;;;;
2022/02/22 13:12:05;;;;;;;;;;;;;;;;;;;;;
2022/02/22 13:15:04;;;;;;;395.90;380.33;;;9.60;99.90;;;;;;4997422;28;20465;-79
2022/02/22 13:17:44;;;;;;;356.30;343.00;;;9.60;99.90;;;;;;4997995;28;20454;-80
2022/02/22 13:20:19;;;;;;;355.33;342.23;;;9.50;99.90;;;;;;4998095;28;20561;-80
2022/02/22 13:23:13;;;;;;;360.20;347.40;;;9.50;99.90;;;;;;4999317;28;20557;-82
2022/02/22 13:26:09;;;;;;;315.07;303.73;;;9.50;99.90;;;;;;5000001;28;20834;-80
2022/02/22 13:31:38;;;;;;;371.43;358.20;;;9.30;99.90;;;;;;4987668;28;20481;-82
2022/02/22 13:34:52;;;;;;;381.50;368.40;;;9.40;99.90;;;;;;5000310;28;20450;-82
2022/02/22 13:37:38;;;;;;;334.37;322.77;;;9.40;99.90;;;;;;4882234;29;20459;-82
2022/02/22 13:40:15;;;;;;;313.93;302.37;;;9.30;99.90;;;;;;4994383;28;20434;-82
2022/02/22 13:43:02;;;;;;;307.63;297.10;;;9.20;99.90;;;;;;4999134;28;20840;-83
2022/02/22 13:45:57;;;;;;;;;;;;;;;;;;;;;
2022/02/22 13:48:37;;;;;;;254.17;244.87;;;9.30;99.90;;;;;;4999430;28;20474;-82
2022/02/22 13:51:20;;;;;;;250.90;241.90;;;9.20;99.90;;;;;;4998578;28;20476;-82
2022/02/22 13:54:37;;;;;;;227.00;218.53;;;9.20;99.90;;;;;;5000575;28;20877;-82
2022/02/22 13:57:52;;;;;;;;;;;;;;;;;;;;;
2022/02/22 14:16:50;;;;;;;235.50;227.20;;;10.10;99.90;;;;;;4825959;29;20462;-79
2022/02/22 14:19:19;;;;;;;166.53;158.73;;;10.00;99.90;;;;;;4884094;29;20489;-80
2022/02/22 14:21:45;;;;;;;177.33;170.53;;;10.20;99.90;;;;;;4933999;28;20487;-80